createdAt,value
2017-08-10T00:00:01.639Z,18.84
2017-08-10T00:00:05.787Z,18.86
2017-08-10T00:00:09.901Z,18.89
2017-08-10T00:00:14.258Z,18.82
2017-08-10T00:00:18.602Z,18.9
2017-08-10T00:00:22.831Z,18.86
2017-08-10T00:00:27.323Z,18.89
2017-08-10T00:00:31.803Z,18.87
2017-08-10T00:00:36.258Z,18.86
2017-08-10T00:00:40.720Z,18.75
2017-08-10T00:00:45.198Z,18.86
2017-08-10T00:00:49.541Z,18.84
2017-08-10T00:00:53.886Z,18.82
2017-08-10T00:00:58.240Z,18.89
2017-08-10T00:01:02.712Z,18.78
2017-08-10T00:01:07.176Z,18.82
2017-08-10T00:01:11.392Z,18.86
2017-08-10T00:01:15.497Z,18.76
2017-08-10T00:01:19.973Z,18.86
2017-08-10T00:01:24.435Z,18.84
2017-08-10T00:01:28.780Z,18.78
2017-08-10T00:01:33.256Z,18.84
2017-08-10T00:01:37.601Z,18.79
2017-08-10T00:01:41.936Z,18.89
2017-08-10T00:01:46.414Z,18.76
2017-08-10T00:01:50.902Z,18.79
2017-08-10T00:01:55.353Z,18.74
2017-08-10T00:01:59.818Z,18.76
2017-08-10T00:02:04.174Z,18.75
2017-08-10T00:02:08.396Z,18.76
2017-08-10T00:02:12.402Z,18.75
2017-08-10T00:02:16.528Z,18.75
2017-08-10T00:02:20.890Z,18.71
2017-08-10T00:02:25.361Z,18.76
2017-08-10T00:02:29.819Z,18.78
2017-08-10T00:02:34.180Z,18.74
2017-08-10T00:02:38.546Z,18.82
2017-08-10T00:02:43.010Z,18.75
2017-08-10T00:02:47.481Z,18.75
2017-08-10T00:02:51.949Z,18.72
2017-08-10T00:02:56.296Z,18.76
2017-08-10T00:03:00.659Z,18.74
2017-08-10T00:03:05.131Z,18.82
2017-08-10T00:03:09.594Z,18.74
2017-08-10T00:03:13.940Z,18.74
2017-08-10T00:03:18.051Z,18.76
2017-08-10T00:03:22.427Z,18.78
2017-08-10T00:03:26.906Z,18.74
2017-08-10T00:03:31.261Z,18.71
2017-08-10T00:03:35.746Z,18.69
2017-08-10T00:03:40.227Z,18.71
2017-08-10T00:03:44.678Z,18.71
2017-08-10T00:03:49.019Z,18.66
2017-08-10T00:03:53.353Z,18.65
2017-08-10T00:03:57.700Z,18.66
2017-08-10T00:04:01.928Z,18.74
2017-08-10T00:04:06.413Z,18.69
2017-08-10T00:04:10.905Z,18.72
2017-08-10T00:04:15.147Z,18.71
2017-08-10T00:04:19.385Z,18.75
2017-08-10T00:04:23.613Z,18.74
2017-08-10T00:04:28.113Z,18.75
2017-08-10T00:04:32.571Z,18.66
2017-08-10T00:04:36.913Z,18.64
2017-08-10T00:04:41.378Z,18.71
2017-08-10T00:04:45.836Z,18.64
2017-08-10T00:04:50.059Z,18.69
2017-08-10T00:04:54.521Z,18.62
2017-08-10T00:04:58.984Z,18.75
2017-08-10T00:05:03.530Z,18.69
2017-08-10T00:05:07.874Z,18.75
2017-08-10T00:05:12.216Z,18.68
2017-08-10T00:05:16.702Z,18.68
2017-08-10T00:05:21.050Z,18.66
2017-08-10T00:05:25.521Z,18.72
2017-08-10T00:05:29.860Z,18.66
2017-08-10T00:05:34.201Z,18.65
2017-08-10T00:05:38.664Z,18.69
2017-08-10T00:05:43.144Z,18.74
2017-08-10T00:05:47.497Z,18.66
2017-08-10T00:05:51.845Z,18.71
2017-08-10T00:05:56.185Z,18.66
2017-08-10T00:06:00.533Z,18.68
2017-08-10T00:06:04.761Z,18.62
2017-08-10T00:06:08.981Z,18.69
2017-08-10T00:06:13.221Z,18.59
2017-08-10T00:06:17.698Z,18.62
2017-08-10T00:06:21.925Z,18.65
2017-08-10T00:06:26.278Z,18.66
2017-08-10T00:06:30.748Z,18.65
2017-08-10T00:06:35.082Z,18.62
2017-08-10T00:06:39.534Z,18.66
2017-08-10T00:06:44.000Z,18.72
2017-08-10T00:06:48.499Z,18.6
2017-08-10T00:06:52.971Z,18.64
2017-08-10T00:06:57.429Z,18.6
2017-08-10T00:07:01.531Z,18.59
2017-08-10T00:07:05.912Z,18.6
2017-08-10T00:07:10.374Z,18.54
2017-08-10T00:07:14.736Z,18.6
2017-08-10T00:07:19.204Z,18.64
2017-08-10T00:07:23.665Z,18.56
2017-08-10T00:07:28.129Z,18.64
2017-08-10T00:07:32.599Z,18.6
2017-08-10T00:07:37.100Z,18.6
2017-08-10T00:07:41.559Z,18.6
2017-08-10T00:07:45.900Z,18.59
2017-08-10T00:07:50.241Z,18.62
2017-08-10T00:07:54.509Z,18.59
2017-08-10T00:07:58.869Z,18.6
2017-08-10T00:08:03.152Z,18.59
2017-08-10T00:08:07.619Z,18.54
2017-08-10T00:08:11.865Z,18.62
2017-08-10T00:08:16.319Z,18.57
2017-08-10T00:08:20.542Z,18.56
2017-08-10T00:08:25.008Z,18.6
2017-08-10T00:08:29.489Z,18.56
2017-08-10T00:08:33.981Z,18.64
2017-08-10T00:08:38.345Z,18.6
2017-08-10T00:08:42.813Z,18.6
2017-08-10T00:08:47.029Z,18.57
2017-08-10T00:08:51.489Z,18.57
2017-08-10T00:08:55.715Z,18.64
2017-08-10T00:09:00.079Z,18.57
2017-08-10T00:09:04.294Z,18.6
2017-08-10T00:09:09.058Z,18.57
2017-08-10T00:09:13.407Z,18.56
2017-08-10T00:09:17.879Z,18.51
2017-08-10T00:09:22.218Z,18.54
2017-08-10T00:09:26.664Z,18.56
2017-08-10T00:09:30.883Z,18.6
2017-08-10T00:09:35.347Z,18.49
2017-08-10T00:09:39.805Z,18.51
2017-08-10T00:09:44.057Z,18.6
2017-08-10T00:09:48.530Z,18.59
2017-08-10T00:09:52.997Z,18.59
2017-08-10T00:09:57.237Z,18.5
2017-08-10T00:10:01.601Z,18.54
2017-08-10T00:10:06.027Z,18.51
2017-08-10T00:10:10.373Z,18.49
2017-08-10T00:10:14.746Z,18.51
2017-08-10T00:10:19.095Z,18.57
2017-08-10T00:10:23.189Z,18.53
2017-08-10T00:10:27.654Z,18.49
2017-08-10T00:10:32.130Z,18.5
2017-08-10T00:10:36.601Z,18.5
2017-08-10T00:10:41.063Z,18.49
2017-08-10T00:10:45.426Z,18.53
2017-08-10T00:10:49.890Z,18.5
2017-08-10T00:10:54.220Z,18.5
2017-08-10T00:10:58.673Z,18.47
2017-08-10T00:11:03.226Z,18.53
2017-08-10T00:11:07.341Z,18.5
2017-08-10T00:11:11.580Z,18.49
2017-08-10T00:11:15.935Z,18.49
2017-08-10T00:11:20.177Z,18.49
2017-08-10T00:11:24.310Z,18.36
2017-08-10T00:11:28.783Z,18.46
2017-08-10T00:11:33.256Z,18.41
2017-08-10T00:11:37.604Z,18.47
2017-08-10T00:11:42.077Z,18.44
2017-08-10T00:11:46.420Z,18.42
2017-08-10T00:11:50.672Z,18.36
2017-08-10T00:11:55.018Z,18.47
2017-08-10T00:11:59.471Z,18.5
2017-08-10T00:12:04.130Z,18.49
2017-08-10T00:12:08.358Z,18.41
2017-08-10T00:12:12.797Z,18.41
2017-08-10T00:12:17.044Z,18.39
2017-08-10T00:12:21.395Z,18.49
2017-08-10T00:12:25.743Z,18.44
2017-08-10T00:12:30.208Z,18.42
2017-08-10T00:12:34.673Z,18.41
2017-08-10T00:12:39.068Z,18.44
2017-08-10T00:12:43.540Z,18.44
2017-08-10T00:12:47.753Z,18.47
2017-08-10T00:12:51.867Z,18.42
2017-08-10T00:12:56.328Z,18.42
2017-08-10T00:13:00.680Z,18.47
2017-08-10T00:13:05.335Z,18.46
2017-08-10T00:13:09.566Z,18.39
2017-08-10T00:13:13.799Z,18.44
2017-08-10T00:13:18.243Z,18.44
2017-08-10T00:13:22.705Z,18.46
2017-08-10T00:13:27.180Z,18.41
2017-08-10T00:13:31.545Z,18.46
2017-08-10T00:13:36.000Z,18.47
2017-08-10T00:13:40.354Z,18.42
2017-08-10T00:13:44.816Z,18.46
2017-08-10T00:13:49.038Z,18.41
2017-08-10T00:13:53.142Z,18.41
2017-08-10T00:13:57.488Z,18.41
2017-08-10T00:14:01.957Z,18.39
2017-08-10T00:14:06.418Z,18.38
2017-08-10T00:14:10.657Z,18.39
2017-08-10T00:14:14.894Z,18.36
2017-08-10T00:14:19.013Z,18.44
2017-08-10T00:14:23.354Z,18.38
2017-08-10T00:14:27.826Z,18.42
2017-08-10T00:14:32.298Z,18.39
2017-08-10T00:14:36.631Z,18.38
2017-08-10T00:14:40.837Z,18.38
2017-08-10T00:14:45.070Z,18.34
2017-08-10T00:14:49.302Z,18.39
2017-08-10T00:14:53.775Z,18.44
2017-08-10T00:14:58.237Z,18.47
2017-08-10T00:15:02.796Z,18.34
2017-08-10T00:15:07.281Z,18.31
2017-08-10T00:15:11.513Z,18.41
2017-08-10T00:15:15.858Z,18.36
2017-08-10T00:15:19.973Z,18.38
2017-08-10T00:15:24.308Z,18.36
2017-08-10T00:15:28.656Z,18.32
2017-08-10T00:15:33.013Z,18.38
2017-08-10T00:15:37.372Z,18.39
2017-08-10T00:15:41.607Z,18.42
2017-08-10T00:15:45.596Z,18.29
2017-08-10T00:15:50.069Z,18.29
2017-08-10T00:15:54.284Z,18.39
2017-08-10T00:15:58.736Z,18.38
2017-08-10T00:16:03.205Z,18.36
2017-08-10T00:16:07.668Z,18.35
2017-08-10T00:16:11.782Z,18.29
2017-08-10T00:16:16.248Z,18.35
2017-08-10T00:16:20.477Z,18.41
2017-08-10T00:16:24.938Z,18.39
2017-08-10T00:16:29.385Z,18.36
2017-08-10T00:16:33.735Z,18.35
2017-08-10T00:16:38.211Z,18.36
2017-08-10T00:16:42.673Z,18.36
2017-08-10T00:16:46.558Z,18.34
2017-08-10T00:16:51.018Z,18.31
2017-08-10T00:16:55.142Z,18.31
2017-08-10T00:16:59.605Z,18.35
2017-08-10T00:17:04.052Z,18.31
2017-08-10T00:17:08.518Z,18.38
2017-08-10T00:17:12.768Z,18.44
2017-08-10T00:17:17.234Z,18.36
2017-08-10T00:17:21.331Z,18.41
2017-08-10T00:17:25.789Z,18.39
2017-08-10T00:17:30.032Z,18.32
2017-08-10T00:17:34.367Z,18.29
2017-08-10T00:17:38.713Z,18.29
2017-08-10T00:17:43.168Z,18.34
2017-08-10T00:17:47.396Z,18.32
2017-08-10T00:17:51.621Z,18.36
2017-08-10T00:17:55.976Z,18.35
2017-08-10T00:18:00.466Z,18.35
2017-08-10T00:18:04.878Z,18.32
2017-08-10T00:18:09.227Z,18.34
2017-08-10T00:18:13.457Z,18.34
2017-08-10T00:18:17.836Z,18.39
2017-08-10T00:18:22.307Z,18.35
2017-08-10T00:18:26.666Z,18.34
2017-08-10T00:18:31.132Z,18.32
2017-08-10T00:18:35.607Z,18.39
2017-08-10T00:18:39.937Z,18.34
2017-08-10T00:18:44.405Z,18.35
2017-08-10T00:18:48.763Z,18.31
2017-08-10T00:18:53.107Z,18.36
2017-08-10T00:18:57.437Z,18.36
2017-08-10T00:19:02.144Z,18.36
2017-08-10T00:19:06.493Z,18.32
2017-08-10T00:19:10.961Z,18.35
2017-08-10T00:19:15.191Z,18.39
2017-08-10T00:19:19.652Z,18.34
2017-08-10T00:19:24.004Z,18.36
2017-08-10T00:19:28.475Z,18.35
2017-08-10T00:19:32.938Z,18.34
2017-08-10T00:19:37.285Z,18.32
2017-08-10T00:19:41.645Z,18.34
2017-08-10T00:19:45.975Z,18.38
2017-08-10T00:19:50.459Z,18.38
2017-08-10T00:19:54.844Z,18.32
2017-08-10T00:19:59.301Z,18.36
2017-08-10T00:20:03.887Z,18.35
2017-08-10T00:20:08.239Z,18.34
2017-08-10T00:20:12.373Z,18.31
2017-08-10T00:20:16.826Z,18.38
2017-08-10T00:20:21.173Z,18.39
2017-08-10T00:20:25.652Z,18.35
2017-08-10T00:20:30.004Z,18.35
2017-08-10T00:20:34.239Z,18.29
2017-08-10T00:20:38.600Z,18.31
2017-08-10T00:20:42.967Z,18.35
2017-08-10T00:20:47.322Z,18.35
2017-08-10T00:20:51.793Z,18.32
2017-08-10T00:20:56.263Z,18.35
2017-08-10T00:21:00.729Z,18.35
2017-08-10T00:21:05.320Z,18.31
2017-08-10T00:21:09.555Z,18.35
2017-08-10T00:21:14.016Z,18.34
2017-08-10T00:21:18.352Z,18.32
2017-08-10T00:21:22.698Z,18.36
2017-08-10T00:21:27.052Z,18.34
2017-08-10T00:21:31.409Z,18.36
2017-08-10T00:21:35.625Z,18.31
2017-08-10T00:21:40.101Z,18.32
2017-08-10T00:21:44.558Z,18.38
2017-08-10T00:21:49.024Z,18.36
2017-08-10T00:21:53.266Z,18.38
2017-08-10T00:21:57.606Z,18.31
2017-08-10T00:22:02.063Z,18.36
2017-08-10T00:22:06.533Z,18.34
2017-08-10T00:22:10.741Z,18.36
2017-08-10T00:22:15.097Z,18.35
2017-08-10T00:22:19.336Z,18.32
2017-08-10T00:22:23.716Z,18.31
2017-08-10T00:22:28.063Z,18.34
2017-08-10T00:22:32.404Z,18.29
2017-08-10T00:22:36.675Z,18.31
2017-08-10T00:22:41.147Z,18.34
2017-08-10T00:22:45.489Z,18.35
2017-08-10T00:22:49.836Z,18.36
2017-08-10T00:22:54.184Z,18.36
2017-08-10T00:22:58.651Z,18.34
2017-08-10T00:23:03.421Z,18.34
2017-08-10T00:23:07.768Z,18.39
2017-08-10T00:23:11.879Z,18.34
2017-08-10T00:23:16.223Z,18.38
2017-08-10T00:23:20.216Z,18.34
2017-08-10T00:23:24.456Z,18.34
2017-08-10T00:23:28.912Z,18.34
2017-08-10T00:23:33.367Z,18.36
2017-08-10T00:23:37.594Z,18.34
2017-08-10T00:23:42.067Z,18.29
2017-08-10T00:23:46.302Z,18.32
2017-08-10T00:23:50.765Z,18.34
2017-08-10T00:23:55.228Z,18.32
2017-08-10T00:23:59.691Z,18.29
2017-08-10T00:24:04.031Z,18.34
2017-08-10T00:24:08.494Z,18.32
2017-08-10T00:24:12.615Z,18.29
2017-08-10T00:24:16.963Z,18.34
2017-08-10T00:24:21.066Z,18.31
2017-08-10T00:24:25.524Z,18.35
2017-08-10T00:24:29.866Z,18.32
2017-08-10T00:24:34.334Z,18.32
2017-08-10T00:24:38.562Z,18.31
2017-08-10T00:24:43.049Z,18.31
2017-08-10T00:24:47.532Z,18.31
2017-08-10T00:24:51.991Z,18.34
2017-08-10T00:24:56.451Z,18.31
2017-08-10T00:25:00.906Z,18.28
2017-08-10T00:25:05.316Z,18.2
2017-08-10T00:25:09.776Z,18.34
2017-08-10T00:25:14.119Z,18.31
2017-08-10T00:25:18.356Z,18.34
2017-08-10T00:25:22.821Z,18.29
2017-08-10T00:25:27.281Z,18.32
2017-08-10T00:25:31.753Z,18.32
2017-08-10T00:25:36.203Z,18.34
2017-08-10T00:25:40.664Z,18.32
2017-08-10T00:25:45.001Z,18.21
2017-08-10T00:25:49.390Z,18.31
2017-08-10T00:25:53.851Z,18.28
2017-08-10T00:25:58.066Z,18.34
2017-08-10T00:26:02.771Z,18.17
2017-08-10T00:26:07.132Z,18.31
2017-08-10T00:26:11.469Z,18.35
2017-08-10T00:26:15.926Z,18.28
2017-08-10T00:26:20.162Z,18.29
2017-08-10T00:26:24.511Z,18.32
2017-08-10T00:26:28.974Z,18.32
2017-08-10T00:26:33.185Z,18.31
2017-08-10T00:26:37.677Z,18.23
2017-08-10T00:26:42.026Z,18.19
2017-08-10T00:26:46.135Z,18.39
2017-08-10T00:26:50.602Z,18.29
2017-08-10T00:26:55.079Z,18.26
2017-08-10T00:26:59.531Z,18.31
2017-08-10T00:27:04.290Z,18.26
2017-08-10T00:27:08.786Z,18.28
2017-08-10T00:27:13.238Z,18.28
2017-08-10T00:27:17.577Z,18.2
2017-08-10T00:27:21.905Z,18.36
2017-08-10T00:27:26.137Z,18.32
2017-08-10T00:27:30.480Z,18.26
2017-08-10T00:27:34.941Z,18.2
2017-08-10T00:27:39.299Z,18.35
2017-08-10T00:27:43.650Z,18.29
2017-08-10T00:27:48.108Z,18.26
2017-08-10T00:27:52.447Z,18.36
2017-08-10T00:27:56.909Z,18.28
2017-08-10T00:28:01.144Z,18.26
2017-08-10T00:28:05.485Z,18.26
2017-08-10T00:28:09.704Z,18.32
2017-08-10T00:28:14.057Z,18.29
2017-08-10T00:28:18.447Z,18.29
2017-08-10T00:28:22.795Z,18.26
2017-08-10T00:28:27.142Z,18.28
2017-08-10T00:28:31.495Z,18.28
2017-08-10T00:28:35.875Z,18.19
2017-08-10T00:28:40.211Z,18.26
2017-08-10T00:28:44.674Z,18.28
2017-08-10T00:28:49.012Z,18.28
2017-08-10T00:28:53.371Z,18.25
2017-08-10T00:28:57.719Z,18.25
2017-08-10T00:29:02.083Z,18.26
2017-08-10T00:29:06.549Z,18.26
2017-08-10T00:29:11.020Z,18.31
2017-08-10T00:29:15.385Z,18.25
2017-08-10T00:29:19.616Z,18.28
2017-08-10T00:29:24.100Z,18.23
2017-08-10T00:29:28.450Z,18.23
2017-08-10T00:29:32.688Z,18.26
2017-08-10T00:29:37.164Z,18.19
2017-08-10T00:29:41.291Z,18.26
2017-08-10T00:29:45.642Z,18.23
2017-08-10T00:29:50.092Z,18.31
2017-08-10T00:29:54.333Z,18.21
2017-08-10T00:29:58.794Z,18.21
2017-08-10T00:30:03.255Z,18.23
2017-08-10T00:30:07.485Z,18.23
2017-08-10T00:30:11.739Z,18.26
2017-08-10T00:30:16.196Z,18.26
2017-08-10T00:30:20.535Z,18.29
2017-08-10T00:30:24.880Z,18.21
2017-08-10T00:30:29.351Z,18.28
2017-08-10T00:30:33.699Z,18.26
2017-08-10T00:30:38.177Z,18.19
2017-08-10T00:30:42.424Z,18.29
2017-08-10T00:30:46.751Z,18.23
2017-08-10T00:30:51.202Z,18.25
2017-08-10T00:30:55.563Z,18.26
2017-08-10T00:31:00.025Z,18.25
2017-08-10T00:31:04.378Z,18.28
2017-08-10T00:31:08.711Z,18.23
2017-08-10T00:31:13.070Z,18.2
2017-08-10T00:31:17.079Z,18.25
2017-08-10T00:31:21.528Z,18.26
2017-08-10T00:31:25.637Z,18.19
2017-08-10T00:31:30.113Z,18.2
2017-08-10T00:31:34.449Z,18.23
2017-08-10T00:31:38.920Z,18.17
2017-08-10T00:31:43.163Z,18.26
2017-08-10T00:31:47.508Z,18.21
2017-08-10T00:31:51.733Z,18.28
2017-08-10T00:31:56.206Z,18.26
2017-08-10T00:32:00.564Z,18.2
2017-08-10T00:32:04.800Z,18.21
2017-08-10T00:32:08.918Z,18.17
2017-08-10T00:32:13.259Z,18.23
2017-08-10T00:32:17.484Z,18.21
2017-08-10T00:32:21.830Z,18.2
2017-08-10T00:32:26.174Z,18.2
2017-08-10T00:32:30.633Z,18.2
2017-08-10T00:32:35.018Z,18.25
2017-08-10T00:32:39.128Z,18.23
2017-08-10T00:32:43.601Z,18.17
2017-08-10T00:32:47.971Z,18.17
2017-08-10T00:32:52.301Z,18.2
2017-08-10T00:32:56.660Z,18.21
2017-08-10T00:33:01.128Z,18.23
2017-08-10T00:33:05.608Z,18.13
2017-08-10T00:33:09.949Z,18.17
2017-08-10T00:33:14.415Z,18.21
2017-08-10T00:33:18.532Z,18.19
2017-08-10T00:33:22.887Z,18.2
2017-08-10T00:33:27.227Z,18.14
2017-08-10T00:33:31.679Z,18.16
2017-08-10T00:33:36.047Z,18.19
2017-08-10T00:33:40.514Z,18.19
2017-08-10T00:33:44.857Z,18.2
2017-08-10T00:33:49.335Z,18.25
2017-08-10T00:33:53.819Z,18.25
2017-08-10T00:33:58.279Z,18.16
2017-08-10T00:34:02.744Z,18.28
2017-08-10T00:34:07.098Z,18.2
2017-08-10T00:34:11.236Z,18.16
2017-08-10T00:34:15.577Z,18.2
2017-08-10T00:34:19.814Z,18.14
2017-08-10T00:34:24.158Z,18.1
2017-08-10T00:34:28.528Z,18.14
2017-08-10T00:34:32.877Z,18.25
2017-08-10T00:34:37.344Z,18.16
2017-08-10T00:34:41.802Z,18.13
2017-08-10T00:34:45.902Z,18.16
2017-08-10T00:34:50.364Z,18.14
2017-08-10T00:34:54.713Z,18.21
2017-08-10T00:34:59.174Z,18.17
2017-08-10T00:35:03.514Z,18.17
2017-08-10T00:35:07.991Z,18.16
2017-08-10T00:35:12.259Z,18.14
2017-08-10T00:35:16.596Z,18.16
2017-08-10T00:35:20.927Z,18.16
2017-08-10T00:35:25.275Z,18.14
2017-08-10T00:35:29.741Z,18.11
2017-08-10T00:35:34.193Z,18.19
2017-08-10T00:35:38.529Z,18.17
2017-08-10T00:35:42.994Z,18.16
2017-08-10T00:35:47.447Z,18.11
2017-08-10T00:35:51.679Z,18.11
2017-08-10T00:35:56.165Z,18.19
2017-08-10T00:36:00.639Z,18.19
2017-08-10T00:36:04.749Z,18.13
2017-08-10T00:36:08.957Z,18.19
2017-08-10T00:36:13.412Z,18.09
2017-08-10T00:36:17.634Z,18.13
2017-08-10T00:36:22.099Z,18.2
2017-08-10T00:36:26.332Z,18.14
2017-08-10T00:36:30.674Z,18.14
2017-08-10T00:36:34.910Z,18.14
2017-08-10T00:36:39.253Z,18.14
2017-08-10T00:36:43.506Z,18.14
2017-08-10T00:36:47.732Z,18.09
2017-08-10T00:36:52.085Z,18.13
2017-08-10T00:36:56.313Z,18.21
2017-08-10T00:37:00.784Z,18.16
2017-08-10T00:37:05.462Z,18.13
2017-08-10T00:37:09.926Z,18.19
2017-08-10T00:37:14.268Z,18.11
2017-08-10T00:37:18.484Z,18.16
2017-08-10T00:37:22.830Z,18.19
2017-08-10T00:37:27.180Z,18.16
2017-08-10T00:37:31.524Z,18.17
2017-08-10T00:37:35.778Z,18.2
2017-08-10T00:37:40.018Z,18.09
2017-08-10T00:37:44.377Z,18.17
2017-08-10T00:37:48.863Z,18.16
2017-08-10T00:37:53.099Z,18.17
2017-08-10T00:37:57.562Z,18.13
2017-08-10T00:38:02.333Z,18.11
2017-08-10T00:38:06.790Z,18.16
2017-08-10T00:38:11.151Z,18.16
2017-08-10T00:38:15.373Z,18.09
2017-08-10T00:38:19.846Z,18.13
2017-08-10T00:38:24.185Z,18.16
2017-08-10T00:38:28.559Z,18.1
2017-08-10T00:38:32.925Z,18.19
2017-08-10T00:38:37.412Z,18.1
2017-08-10T00:38:41.648Z,18.16
2017-08-10T00:38:45.985Z,18.1
2017-08-10T00:38:50.435Z,18.07
2017-08-10T00:38:54.779Z,18.09
2017-08-10T00:38:59.294Z,18.09
2017-08-10T00:39:03.771Z,18.19
2017-08-10T00:39:08.229Z,18.16
2017-08-10T00:39:12.461Z,18.11
2017-08-10T00:39:16.804Z,18.11
2017-08-10T00:39:21.261Z,18.09
2017-08-10T00:39:25.713Z,18.11
2017-08-10T00:39:30.057Z,18.16
2017-08-10T00:39:34.431Z,18.17
2017-08-10T00:39:38.781Z,18.11
2017-08-10T00:39:43.260Z,18.09
2017-08-10T00:39:47.368Z,18.1
2017-08-10T00:39:51.754Z,18.11
2017-08-10T00:39:56.001Z,18.09
2017-08-10T00:40:00.480Z,18.16
2017-08-10T00:40:04.874Z,18.14
2017-08-10T00:40:08.983Z,18.17
2017-08-10T00:40:13.341Z,18.09
2017-08-10T00:40:17.684Z,18.17
2017-08-10T00:40:22.163Z,18.09
2017-08-10T00:40:26.510Z,18.16
2017-08-10T00:40:30.969Z,18.16
2017-08-10T00:40:35.103Z,18.17
2017-08-10T00:40:39.436Z,18.19
2017-08-10T00:40:43.635Z,18.17
2017-08-10T00:40:47.981Z,18.1
2017-08-10T00:40:52.466Z,18.09
2017-08-10T00:40:56.825Z,18.1
2017-08-10T00:41:01.167Z,18.17
2017-08-10T00:41:05.887Z,18.14
2017-08-10T00:41:10.359Z,18.11
2017-08-10T00:41:14.821Z,18.14
2017-08-10T00:41:19.265Z,18.14
2017-08-10T00:41:23.602Z,18.16
2017-08-10T00:41:28.075Z,18.1
2017-08-10T00:41:32.543Z,18.14
2017-08-10T00:41:36.997Z,18.1
2017-08-10T00:41:41.220Z,18.09
2017-08-10T00:41:45.699Z,18.14
2017-08-10T00:41:50.046Z,18.19
2017-08-10T00:41:54.279Z,18.11
2017-08-10T00:41:58.738Z,18.1
2017-08-10T00:42:02.834Z,18.16
2017-08-10T00:42:06.940Z,18.16
2017-08-10T00:42:11.289Z,18.19
2017-08-10T00:42:15.637Z,18.11
2017-08-10T00:42:19.991Z,18.17
2017-08-10T00:42:24.322Z,18.16
2017-08-10T00:42:28.657Z,18.11
2017-08-10T00:42:33.007Z,18.19
2017-08-10T00:42:37.127Z,18.13
2017-08-10T00:42:41.473Z,18.13
2017-08-10T00:42:45.810Z,18.17
2017-08-10T00:42:50.176Z,18.11
2017-08-10T00:42:54.296Z,18.17
2017-08-10T00:42:58.526Z,18.17
2017-08-10T00:43:02.866Z,18.14
2017-08-10T00:43:07.317Z,18.17
2017-08-10T00:43:11.791Z,18.14
2017-08-10T00:43:16.251Z,18.14
2017-08-10T00:43:20.692Z,18.17
2017-08-10T00:43:25.149Z,18.16
2017-08-10T00:43:29.478Z,18.16
2017-08-10T00:43:33.959Z,18.14
2017-08-10T00:43:38.194Z,18.13
2017-08-10T00:43:42.536Z,18.21
2017-08-10T00:43:46.655Z,18.17
2017-08-10T00:43:51.123Z,18.2
2017-08-10T00:43:55.470Z,18.16
2017-08-10T00:43:59.938Z,18.1
2017-08-10T00:44:04.309Z,18.14
2017-08-10T00:44:08.539Z,18.14
2017-08-10T00:44:12.882Z,18.11
2017-08-10T00:44:17.230Z,18.11
2017-08-10T00:44:21.588Z,18.16
2017-08-10T00:44:25.928Z,18.29
2017-08-10T00:44:30.277Z,18.14
2017-08-10T00:44:34.509Z,18.14
2017-08-10T00:44:38.872Z,18.13
2017-08-10T00:44:43.228Z,18.14
2017-08-10T00:44:47.464Z,18.16
2017-08-10T00:44:51.603Z,18.16
2017-08-10T00:44:56.064Z,18.21
2017-08-10T00:45:00.515Z,18.2
2017-08-10T00:45:04.862Z,18.19
2017-08-10T00:45:09.326Z,18.16
2017-08-10T00:45:13.786Z,18.16
2017-08-10T00:45:18.246Z,18.16
2017-08-10T00:45:22.723Z,18.11
2017-08-10T00:45:27.072Z,18.16
2017-08-10T00:45:31.539Z,18.14
2017-08-10T00:45:35.998Z,18.14
2017-08-10T00:45:40.232Z,18.16
2017-08-10T00:45:44.460Z,18.14
2017-08-10T00:45:48.913Z,18.14
2017-08-10T00:45:53.250Z,18.19
2017-08-10T00:45:57.372Z,18.19
2017-08-10T00:46:01.710Z,18.2
2017-08-10T00:46:06.230Z,18.2
2017-08-10T00:46:10.585Z,18.23
2017-08-10T00:46:14.934Z,18.21
2017-08-10T00:46:19.167Z,18.2
2017-08-10T00:46:23.637Z,18.23
2017-08-10T00:46:27.985Z,18.23
2017-08-10T00:46:32.236Z,18.21
2017-08-10T00:46:36.455Z,18.21
2017-08-10T00:46:40.795Z,18.2
2017-08-10T00:46:45.255Z,18.23
2017-08-10T00:46:49.598Z,18.16
2017-08-10T00:46:54.061Z,18.25
2017-08-10T00:46:58.417Z,18.21
2017-08-10T00:47:02.776Z,18.31
2017-08-10T00:47:07.115Z,18.29
2017-08-10T00:47:11.455Z,18.29
2017-08-10T00:47:15.792Z,18.28
2017-08-10T00:47:20.145Z,18.31
2017-08-10T00:47:24.611Z,18.29
2017-08-10T00:47:29.063Z,18.2
2017-08-10T00:47:33.414Z,18.25
2017-08-10T00:47:37.897Z,18.29
2017-08-10T00:47:42.375Z,18.21
2017-08-10T00:47:46.606Z,18.26
2017-08-10T00:47:50.948Z,18.21
2017-08-10T00:47:54.945Z,18.23
2017-08-10T00:47:59.416Z,18.29
2017-08-10T00:48:03.530Z,18.23
2017-08-10T00:48:08.024Z,18.29
2017-08-10T00:48:12.264Z,18.25
2017-08-10T00:48:16.718Z,18.19
2017-08-10T00:48:20.818Z,18.26
2017-08-10T00:48:25.173Z,18.2
2017-08-10T00:48:29.517Z,18.26
2017-08-10T00:48:33.858Z,18.31
2017-08-10T00:48:38.198Z,18.21
2017-08-10T00:48:42.672Z,18.29
2017-08-10T00:48:47.008Z,18.32
2017-08-10T00:48:51.348Z,18.29
2017-08-10T00:48:55.824Z,18.32
2017-08-10T00:49:00.304Z,18.28
2017-08-10T00:49:04.634Z,18.32
2017-08-10T00:49:08.978Z,18.28
2017-08-10T00:49:13.334Z,18.32
2017-08-10T00:49:17.563Z,18.26
2017-08-10T00:49:21.901Z,18.32
2017-08-10T00:49:26.248Z,18.38
2017-08-10T00:49:30.714Z,18.28
2017-08-10T00:49:35.158Z,18.31
2017-08-10T00:49:39.493Z,18.34
2017-08-10T00:49:43.975Z,18.29
2017-08-10T00:49:48.124Z,18.31
2017-08-10T00:49:52.357Z,18.31
2017-08-10T00:49:56.712Z,18.29
2017-08-10T00:50:01.070Z,18.31
2017-08-10T00:50:05.604Z,18.32
2017-08-10T00:50:10.060Z,18.32
2017-08-10T00:50:14.290Z,18.34
2017-08-10T00:50:18.408Z,18.32
2017-08-10T00:50:22.747Z,18.34
2017-08-10T00:50:27.204Z,18.32
2017-08-10T00:50:31.545Z,18.32
2017-08-10T00:50:36.037Z,18.41
2017-08-10T00:50:40.156Z,18.34
2017-08-10T00:50:44.504Z,18.34
2017-08-10T00:50:48.983Z,18.32
2017-08-10T00:50:53.454Z,18.32
2017-08-10T00:50:57.791Z,18.34
2017-08-10T00:51:01.905Z,18.36
2017-08-10T00:51:06.366Z,18.34
2017-08-10T00:51:10.830Z,18.34
2017-08-10T00:51:15.183Z,18.39
2017-08-10T00:51:19.522Z,18.39
2017-08-10T00:51:23.977Z,18.35
2017-08-10T00:51:28.324Z,18.34
2017-08-10T00:51:32.675Z,18.38
2017-08-10T00:51:37.017Z,18.39
2017-08-10T00:51:41.492Z,18.35
2017-08-10T00:51:45.958Z,18.35
2017-08-10T00:51:50.429Z,18.39
2017-08-10T00:51:54.795Z,18.28
2017-08-10T00:51:59.254Z,18.32
2017-08-10T00:52:03.541Z,18.35
2017-08-10T00:52:07.880Z,18.38
2017-08-10T00:52:12.369Z,18.46
2017-08-10T00:52:16.824Z,18.44
2017-08-10T00:52:21.288Z,18.44
2017-08-10T00:52:25.753Z,18.42
2017-08-10T00:52:30.113Z,18.47
2017-08-10T00:52:34.336Z,18.39
2017-08-10T00:52:38.444Z,18.38
2017-08-10T00:52:42.669Z,18.39
2017-08-10T00:52:46.887Z,18.39
2017-08-10T00:52:51.110Z,18.44
2017-08-10T00:52:55.451Z,18.31
2017-08-10T00:52:59.812Z,18.44
2017-08-10T00:53:04.173Z,18.36
2017-08-10T00:53:08.652Z,18.39
2017-08-10T00:53:13.011Z,18.44
2017-08-10T00:53:17.508Z,18.42
2017-08-10T00:53:21.966Z,18.46
2017-08-10T00:53:26.184Z,18.42
2017-08-10T00:53:30.658Z,18.36
2017-08-10T00:53:35.025Z,18.46
2017-08-10T00:53:39.263Z,18.41
2017-08-10T00:53:43.493Z,18.47
2017-08-10T00:53:47.835Z,18.39
2017-08-10T00:53:52.296Z,18.44
2017-08-10T00:53:56.650Z,18.44
2017-08-10T00:54:00.883Z,18.44
2017-08-10T00:54:05.000Z,18.42
2017-08-10T00:54:09.340Z,18.49
2017-08-10T00:54:13.564Z,18.42
2017-08-10T00:54:17.784Z,18.44
2017-08-10T00:54:22.388Z,18.44
2017-08-10T00:54:26.738Z,18.44
2017-08-10T00:54:31.071Z,18.49
2017-08-10T00:54:35.419Z,18.53
2017-08-10T00:54:39.901Z,18.49
2017-08-10T00:54:44.364Z,18.44
2017-08-10T00:54:48.720Z,18.5
2017-08-10T00:54:52.852Z,18.49
2017-08-10T00:54:57.310Z,18.54
2017-08-10T00:55:01.542Z,18.49
2017-08-10T00:55:05.889Z,18.44
2017-08-10T00:55:10.362Z,18.5
2017-08-10T00:55:14.834Z,18.39
2017-08-10T00:55:19.179Z,18.5
2017-08-10T00:55:23.656Z,18.54
2017-08-10T00:55:28.123Z,18.51
2017-08-10T00:55:32.487Z,18.5
2017-08-10T00:55:36.948Z,18.54
2017-08-10T00:55:41.290Z,18.51
2017-08-10T00:55:45.741Z,18.53
2017-08-10T00:55:50.098Z,18.5
2017-08-10T00:55:54.207Z,18.53
2017-08-10T00:55:58.681Z,18.47
2017-08-10T00:56:02.909Z,18.53
2017-08-10T00:56:07.357Z,18.53
2017-08-10T00:56:11.597Z,18.57
2017-08-10T00:56:15.853Z,18.53
2017-08-10T00:56:20.211Z,18.56